createdAt,value
2023-04-21T00:00:02.264Z,0.00
2023-04-21T00:01:02.415Z,0.00
2023-04-21T00:02:02.262Z,0.00
2023-04-21T00:03:02.428Z,0.00
2023-04-21T00:04:02.343Z,0.00
2023-04-21T00:05:02.253Z,0.00
2023-04-21T00:06:02.191Z,0.00
2023-04-21T00:07:02.189Z,0.00
2023-04-21T00:08:02.160Z,0.00
2023-04-21T00:09:02.148Z,0.00
2023-04-21T00:10:02.140Z,0.00
2023-04-21T00:11:02.131Z,0.00
2023-04-21T00:12:02.140Z,0.00
2023-04-21T00:13:02.123Z,0.00
2023-04-21T00:14:02.113Z,0.00
2023-04-21T00:15:02.086Z,0.00
2023-04-21T00:16:02.106Z,0.00
2023-04-21T00:17:02.065Z,0.00
2023-04-21T00:18:02.187Z,0.00
2023-04-21T00:19:02.047Z,0.00
2023-04-21T00:20:02.043Z,0.00
2023-04-21T00:21:02.019Z,0.00
2023-04-21T00:22:02.035Z,0.00
2023-04-21T00:23:01.995Z,0.00
2023-04-21T00:24:02.002Z,0.00
2023-04-21T00:25:01.968Z,0.00
2023-04-21T00:26:01.990Z,0.00
2023-04-21T00:27:01.949Z,0.00
2023-04-21T00:28:01.939Z,0.00
2023-04-21T00:29:01.953Z,0.00
2023-04-21T00:30:02.069Z,0.00
2023-04-21T00:31:01.946Z,0.00
2023-04-21T00:32:01.924Z,0.00
2023-04-21T00:33:01.934Z,0.00
2023-04-21T00:34:01.894Z,0.00
2023-04-21T00:35:01.868Z,0.00
2023-04-21T00:36:01.884Z,0.00
2023-04-21T00:37:01.845Z,0.00
2023-04-21T00:38:01.850Z,0.00
2023-04-21T00:39:01.816Z,0.00
2023-04-21T00:40:01.829Z,0.00
2023-04-21T00:41:01.792Z,0.00
2023-04-21T00:42:01.796Z,0.00
2023-04-21T00:43:01.802Z,0.00
2023-04-21T00:44:01.938Z,0.00
2023-04-21T00:45:01.762Z,0.00
2023-04-21T00:46:01.757Z,0.00
2023-04-21T00:47:01.778Z,0.00
2023-04-21T00:48:01.797Z,0.00
2023-04-21T00:49:01.709Z,0.00
2023-04-21T00:50:01.710Z,0.00
2023-04-21T00:51:01.685Z,0.00
2023-04-21T00:52:01.693Z,0.00
2023-04-21T00:53:01.656Z,0.00
2023-04-21T00:54:01.651Z,0.00
2023-04-21T00:55:01.637Z,0.00
2023-04-21T00:56:01.659Z,0.00
2023-04-21T00:57:02.812Z,0.00
2023-04-21T00:58:01.638Z,0.00
2023-04-21T00:59:01.614Z,0.00
2023-04-21T01:00:01.642Z,0.00
2023-04-21T01:01:01.630Z,0.00
2023-04-21T01:02:01.700Z,0.00
2023-04-21T01:03:01.868Z,0.00
2023-04-21T01:04:01.850Z,0.00
2023-04-21T01:05:01.536Z,0.00
2023-04-21T01:06:01.517Z,0.00
2023-04-21T01:07:01.503Z,0.00
2023-04-21T01:08:01.493Z,0.00
2023-04-21T01:09:01.507Z,0.00
2023-04-21T01:10:01.669Z,0.00
2023-04-21T01:11:01.457Z,0.00
2023-04-21T01:12:01.606Z,0.00
2023-04-21T01:13:01.447Z,0.00
2023-04-21T01:14:01.437Z,0.00
2023-04-21T01:15:01.446Z,0.00
2023-04-21T01:16:01.465Z,0.00
2023-04-21T01:17:01.489Z,0.00
2023-04-21T01:18:01.531Z,0.00
2023-04-21T01:19:01.367Z,0.00
2023-04-21T01:20:01.356Z,0.00
2023-04-21T01:21:01.345Z,0.00
2023-04-21T01:22:01.453Z,0.00
2023-04-21T01:23:01.356Z,0.00
2023-04-21T01:24:01.340Z,0.00
2023-04-21T01:25:01.301Z,0.00
2023-04-21T01:26:01.287Z,0.00
2023-04-21T01:27:01.292Z,0.00
2023-04-21T01:28:01.281Z,0.00
2023-04-21T01:29:01.260Z,0.00
2023-04-21T01:30:01.260Z,0.00
2023-04-21T01:31:01.400Z,0.00
2023-04-21T01:32:01.267Z,0.00
2023-04-21T01:33:01.246Z,0.00
2023-04-21T01:34:01.271Z,0.00
2023-04-21T01:35:01.187Z,0.00
2023-04-21T01:36:01.197Z,0.00
2023-04-21T01:37:01.166Z,0.00
2023-04-21T01:38:01.154Z,0.00
2023-04-21T01:39:01.145Z,0.00
2023-04-21T01:40:01.139Z,0.00
2023-04-21T01:41:01.155Z,0.00
2023-04-21T01:42:01.106Z,0.00
2023-04-21T01:43:01.098Z,0.00
2023-04-21T01:44:01.109Z,0.00
2023-04-21T01:45:01.150Z,0.00
2023-04-21T01:46:01.117Z,0.00
2023-04-21T01:47:01.060Z,0.00
2023-04-21T01:48:01.066Z,0.00
2023-04-21T01:49:01.039Z,0.00
2023-04-21T01:50:01.062Z,0.00
2023-04-21T01:51:01.009Z,0.00
2023-04-21T01:52:01.014Z,0.00
2023-04-21T01:53:01.127Z,0.00
2023-04-21T01:54:00.989Z,0.00
2023-04-21T01:55:00.984Z,0.00
2023-04-21T01:56:00.960Z,0.00
2023-04-21T01:57:01.010Z,0.00
2023-04-21T01:58:00.926Z,0.00
2023-04-21T01:59:00.922Z,0.00
2023-04-21T02:00:00.933Z,0.00
2023-04-21T02:01:00.927Z,0.00
2023-04-21T02:02:00.913Z,0.00
2023-04-21T02:03:01.009Z,0.00
2023-04-21T02:04:01.046Z,0.00
2023-04-21T02:05:00.874Z,0.00
2023-04-21T02:06:00.852Z,0.00
2023-04-21T02:07:00.826Z,0.00
2023-04-21T02:08:00.816Z,0.00
2023-04-21T02:09:00.820Z,0.00
2023-04-21T02:10:00.794Z,0.00
2023-04-21T02:11:00.829Z,0.00
2023-04-21T02:12:00.770Z,0.00
2023-04-21T02:13:00.753Z,0.00
2023-04-21T02:14:00.747Z,0.00
2023-04-21T02:15:00.759Z,0.00
2023-04-21T02:16:12.534Z,0.00
2023-04-21T02:17:01.718Z,0.00
2023-04-21T02:18:00.776Z,0.00
2023-04-21T02:19:00.693Z,0.00
2023-04-21T02:20:02.590Z,0.00
2023-04-21T02:21:00.706Z,0.00
2023-04-21T02:22:00.671Z,0.00
2023-04-21T02:23:00.653Z,0.00
2023-04-21T02:24:00.651Z,0.00
2023-04-21T02:25:00.622Z,0.00
2023-04-21T02:26:00.619Z,0.00
2023-04-21T02:27:00.686Z,0.00
2023-04-21T02:28:00.606Z,0.00
2023-04-21T02:29:00.568Z,0.00
2023-04-21T02:30:00.568Z,0.00
2023-04-21T02:31:00.590Z,0.00
2023-04-21T02:32:07.822Z,0.00
2023-04-21T02:33:01.567Z,0.00
2023-04-21T02:34:00.528Z,0.00
2023-04-21T02:35:00.528Z,0.00
2023-04-21T02:36:00.497Z,0.00
2023-04-21T02:37:00.540Z,0.00
2023-04-21T02:38:00.570Z,0.00
2023-04-21T02:39:00.463Z,0.00
2023-04-21T02:40:00.458Z,0.00
2023-04-21T02:41:00.499Z,0.00
2023-04-21T02:42:00.427Z,0.00
2023-04-21T02:43:00.425Z,0.00
2023-04-21T02:44:00.396Z,0.00
2023-04-21T02:45:00.401Z,0.00
2023-04-21T02:46:00.398Z,0.00
2023-04-21T02:47:00.513Z,0.00
2023-04-21T02:48:00.449Z,0.00
2023-04-21T02:49:00.349Z,0.00
2023-04-21T02:50:00.366Z,0.00
2023-04-21T02:51:00.343Z,0.00
2023-04-21T02:52:00.309Z,0.00
2023-04-21T02:53:00.314Z,0.00
2023-04-21T02:54:00.365Z,0.00
2023-04-21T02:55:00.269Z,0.00
2023-04-21T02:56:00.264Z,0.00
2023-04-21T02:57:00.252Z,0.00
2023-04-21T02:58:00.276Z,0.00
2023-04-21T02:59:00.296Z,0.00
2023-04-21T03:00:00.244Z,0.00
2023-04-21T03:01:00.274Z,0.00
2023-04-21T03:02:00.377Z,0.00
2023-04-21T03:03:00.387Z,0.00
2023-04-21T03:04:00.323Z,0.00
2023-04-21T03:05:00.170Z,0.00
2023-04-21T03:06:00.169Z,0.00
2023-04-21T03:07:00.227Z,0.00
2023-04-21T03:08:00.189Z,0.00
2023-04-21T03:09:00.134Z,0.00
2023-04-21T03:10:00.188Z,0.00
2023-04-21T03:11:00.182Z,0.00
2023-04-21T03:12:00.104Z,0.00
2023-04-21T03:13:00.076Z,0.00
2023-04-21T03:14:00.944Z,0.00
2023-04-21T03:15:00.054Z,0.00
2023-04-21T03:16:00.108Z,0.00
2023-04-21T03:17:00.158Z,0.00
2023-04-21T03:18:00.081Z,0.00
2023-04-21T03:19:00.009Z,0.00
2023-04-21T03:20:00.033Z,0.00
2023-04-21T03:20:59.987Z,0.00
2023-04-21T03:21:59.974Z,4.00
2023-04-21T03:22:59.958Z,4.00
2023-04-21T03:23:59.954Z,0.00
2023-04-21T03:24:59.953Z,0.00
2023-04-21T03:25:59.982Z,4.00
2023-04-21T03:26:59.923Z,4.00
2023-04-21T03:27:59.901Z,4.00
2023-04-21T03:28:59.913Z,8.00
2023-04-21T03:30:00.037Z,4.00
2023-04-21T03:30:59.873Z,4.00
2023-04-21T03:31:59.891Z,4.00
2023-04-21T03:32:59.881Z,12.00
2023-04-21T03:33:59.841Z,8.00
2023-04-21T03:34:59.845Z,12.00
2023-04-21T03:35:59.827Z,16.00
2023-04-21T03:36:59.824Z,16.00
2023-04-21T03:39:12.850Z,20.00
2023-04-21T03:40:00.768Z,24.00
2023-04-21T03:40:59.782Z,28.00
2023-04-21T03:41:59.761Z,32.00
2023-04-21T03:42:59.744Z,40.00
2023-04-21T03:43:59.749Z,44.00
2023-04-21T03:44:59.709Z,52.00
2023-04-21T03:45:59.725Z,60.00
2023-04-21T03:46:59.727Z,64.00
2023-04-21T03:47:59.783Z,76.00
2023-04-21T03:49:01.873Z,84.00
2023-04-21T03:49:59.663Z,96.00
2023-04-21T03:50:59.684Z,104.00
2023-04-21T03:51:59.650Z,120.00
2023-04-21T03:52:59.627Z,128.00
2023-04-21T03:53:59.615Z,148.00
2023-04-21T03:54:59.599Z,160.00
2023-04-21T03:55:59.613Z,176.00
2023-04-21T03:56:59.604Z,196.00
2023-04-21T03:57:59.602Z,208.00
2023-04-21T03:58:59.565Z,228.00
2023-04-21T03:59:59.546Z,252.00
2023-04-21T04:00:59.538Z,268.00
2023-04-21T04:01:59.549Z,296.00
2023-04-21T04:02:59.733Z,316.00
2023-04-21T04:03:59.734Z,344.00
2023-04-21T04:04:59.616Z,368.00
2023-04-21T04:05:59.513Z,392.00
2023-04-21T04:06:59.488Z,420.00
2023-04-21T04:07:59.450Z,448.00
2023-04-21T04:08:59.472Z,476.00
2023-04-21T04:09:59.438Z,504.00
2023-04-21T04:10:59.425Z,536.00
2023-04-21T04:11:59.408Z,568.00
2023-04-21T04:12:59.400Z,596.00
2023-04-21T04:13:59.430Z,632.00
2023-04-21T04:14:59.419Z,668.00
2023-04-21T04:15:59.431Z,704.00
2023-04-21T04:16:59.364Z,744.00
2023-04-21T04:17:59.369Z,784.00
2023-04-21T04:18:59.360Z,824.00
2023-04-21T04:19:59.334Z,860.00
2023-04-21T04:20:59.329Z,904.00
2023-04-21T04:21:59.318Z,944.00
2023-04-21T04:22:59.308Z,988.00
2023-04-21T04:23:59.291Z,1028.00
2023-04-21T04:24:59.273Z,1072.00
2023-04-21T04:25:59.258Z,1112.00
2023-04-21T04:26:59.245Z,1156.00
2023-04-21T04:27:59.275Z,1204.00
2023-04-21T04:28:59.237Z,1248.00
2023-04-21T04:29:59.241Z,1292.00
2023-04-21T04:30:59.236Z,1340.00
2023-04-21T04:31:59.200Z,1380.00
2023-04-21T04:32:59.244Z,1428.00
2023-04-21T04:33:59.233Z,1476.00
2023-04-21T04:34:59.161Z,1524.00
2023-04-21T04:35:59.186Z,1572.00
2023-04-21T04:36:59.147Z,1620.00
2023-04-21T04:37:59.142Z,1668.00
2023-04-21T04:38:59.122Z,1716.00
2023-04-21T04:39:59.106Z,1768.00
2023-04-21T04:40:59.098Z,1816.00
2023-04-21T04:41:59.091Z,1864.00
2023-04-21T04:42:59.067Z,1916.00
2023-04-21T04:44:00.742Z,1960.00
2023-04-21T04:44:59.042Z,2004.00
2023-04-21T04:45:59.073Z,2056.00
2023-04-21T04:46:59.158Z,2104.00
2023-04-21T04:47:59.075Z,2152.00
2023-04-21T04:48:59.002Z,2200.00
2023-04-21T04:49:58.988Z,2252.00
2023-04-21T04:50:58.999Z,2300.00
2023-04-21T04:51:58.963Z,2352.00
2023-04-21T04:52:58.956Z,2396.00
2023-04-21T04:53:58.953Z,2444.00
2023-04-21T04:55:06.040Z,2496.00
2023-04-21T04:55:59.018Z,2544.00
2023-04-21T04:56:59.495Z,2592.00
2023-04-21T04:57:58.946Z,2644.00
2023-04-21T04:58:58.884Z,2696.00
2023-04-21T04:59:58.872Z,2748.00
2023-04-21T05:00:58.892Z,2800.00
2023-04-21T05:01:58.901Z,2848.00
2023-04-21T05:02:59.038Z,2892.00
2023-04-21T05:03:59.072Z,2948.00
2023-04-21T05:04:58.935Z,2996.00
2023-04-21T05:05:58.821Z,3056.00
2023-04-21T05:06:58.794Z,3096.00
2023-04-21T05:07:58.834Z,3144.00
2023-04-21T05:08:58.779Z,3192.00
2023-04-21T05:09:58.788Z,3240.00
2023-04-21T05:10:58.772Z,3284.00
2023-04-21T05:11:58.752Z,3328.00
2023-04-21T05:12:58.728Z,3372.00
2023-04-21T05:13:58.720Z,3416.00
2023-04-21T05:14:58.708Z,3460.00
2023-04-21T05:15:58.708Z,3504.00
2023-04-21T05:16:58.742Z,3544.00
2023-04-21T05:17:58.714Z,3584.00
2023-04-21T05:18:58.674Z,3628.00
2023-04-21T05:19:58.667Z,3668.00
2023-04-21T05:20:58.637Z,3716.00
2023-04-21T05:21:58.630Z,3772.00
2023-04-21T05:22:58.626Z,3820.00
2023-04-21T05:23:58.606Z,3868.00
2023-04-21T05:24:58.608Z,3908.00
2023-04-21T05:25:58.583Z,3956.00
2023-04-21T05:26:59.480Z,4008.00
2023-04-21T05:27:58.574Z,4052.00
2023-04-21T05:28:58.563Z,4112.00
2023-04-21T05:29:58.561Z,4200.00
2023-04-21T05:30:58.538Z,4288.00
2023-04-21T05:31:58.578Z,4380.00
2023-04-21T05:32:58.570Z,4476.00
2023-04-21T05:33:58.510Z,4568.00
2023-04-21T05:34:58.479Z,4672.00
2023-04-21T05:35:58.475Z,4776.00
2023-04-21T05:36:58.478Z,4880.00
2023-04-21T05:37:58.462Z,4988.00
2023-04-21T05:38:58.439Z,5096.00
2023-04-21T05:39:58.434Z,5200.00
2023-04-21T05:40:58.458Z,5308.00
2023-04-21T05:41:58.419Z,5424.00
2023-04-21T05:42:58.534Z,5524.00
2023-04-21T05:43:58.392Z,5632.00
2023-04-21T05:44:58.367Z,5736.00
2023-04-21T05:45:58.450Z,5840.00
2023-04-21T05:46:58.347Z,5964.00
2023-04-21T05:47:58.399Z,6092.00
2023-04-21T05:48:58.327Z,6224.00
2023-04-21T05:49:58.334Z,6348.00
2023-04-21T05:50:58.315Z,6480.00
2023-04-21T05:51:58.304Z,6616.00
2023-04-21T05:52:58.489Z,6736.00
2023-04-21T05:53:58.272Z,6872.00
2023-04-21T05:54:59.055Z,7008.00
2023-04-21T05:55:58.262Z,7132.00
2023-04-21T05:56:58.292Z,7260.00
2023-04-21T05:57:58.270Z,7380.00
2023-04-21T05:58:58.314Z,7516.00
2023-04-21T05:59:58.307Z,7644.00
2023-04-21T06:00:58.192Z,7792.00
2023-04-21T06:01:58.174Z,7936.00
2023-04-21T06:02:58.368Z,8072.00
2023-04-21T06:03:58.366Z,8188.00
2023-04-21T06:04:58.370Z,8332.00
2023-04-21T06:05:58.289Z,8472.00
2023-04-21T06:06:58.160Z,8604.00
2023-04-21T06:07:58.143Z,8744.00
2023-04-21T06:08:58.095Z,8892.00
2023-04-21T06:09:58.129Z,9044.00
2023-04-21T06:10:58.089Z,9224.00
2023-04-21T06:11:58.186Z,9372.00
2023-04-21T06:12:58.049Z,9492.00
2023-04-21T06:13:58.097Z,9652.00
2023-04-21T06:14:58.054Z,9828.00
2023-04-21T06:15:58.069Z,9996.00
2023-04-21T06:16:58.002Z,10144.00
2023-04-21T06:17:58.121Z,10324.00
2023-04-21T06:18:57.994Z,10476.00
2023-04-21T06:19:57.993Z,10668.00
2023-04-21T06:20:57.962Z,10860.00
2023-04-21T06:21:57.980Z,11020.00
2023-04-21T06:22:57.942Z,11196.00
2023-04-21T06:23:57.927Z,11392.00
2023-04-21T06:24:58.700Z,11628.00
2023-04-21T06:25:57.909Z,11896.00
2023-04-21T06:26:57.906Z,12220.00
2023-04-21T06:27:57.887Z,12620.00
2023-04-21T06:28:57.878Z,13128.00
2023-04-21T06:29:57.884Z,13784.00
2023-04-21T06:30:57.847Z,15104.00
2023-04-21T06:31:57.936Z,17184.00
2023-04-21T06:32:57.894Z,20000.00
2023-04-21T06:33:57.822Z,22464.00
2023-04-21T06:34:57.838Z,24128.00
2023-04-21T06:35:57.808Z,25632.00
2023-04-21T06:36:57.779Z,26496.00
2023-04-21T06:37:57.792Z,27104.00
2023-04-21T06:38:57.755Z,27680.00
2023-04-21T06:39:57.783Z,28128.00
2023-04-21T06:40:57.767Z,28544.00
2023-04-21T06:41:57.726Z,28864.00
2023-04-21T06:42:57.714Z,29248.00
2023-04-21T06:43:57.704Z,29728.00
2023-04-21T06:44:57.702Z,30176.00
2023-04-21T06:45:57.683Z,30752.00
2023-04-21T06:46:57.754Z,31520.00
2023-04-21T06:47:57.668Z,32192.00
2023-04-21T06:48:57.646Z,32736.00
2023-04-21T06:49:57.655Z,33440.00
2023-04-21T06:50:57.627Z,33888.00
2023-04-21T06:51:57.610Z,33920.00
2023-04-21T06:52:57.608Z,33952.00
2023-04-21T06:53:57.623Z,34272.00
2023-04-21T06:54:57.577Z,34656.00
2023-04-21T06:55:57.595Z,35232.00
2023-04-21T06:56:57.554Z,35552.00
2023-04-21T06:57:57.560Z,36032.00
2023-04-21T06:58:57.567Z,36448.00
2023-04-21T06:59:57.523Z,36864.00
2023-04-21T07:00:57.543Z,37344.00
2023-04-21T07:01:57.525Z,37664.00
2023-04-21T07:02:57.591Z,38208.00
2023-04-21T07:03:57.596Z,38752.00
2023-04-21T07:04:57.480Z,39232.00
2023-04-21T07:05:57.458Z,39552.00
2023-04-21T07:06:57.467Z,39872.00
2023-04-21T07:07:57.436Z,40448.00
2023-04-21T07:08:57.429Z,40896.00
2023-04-21T07:09:57.442Z,41440.00
2023-04-21T07:10:57.536Z,41888.00
2023-04-21T07:11:57.415Z,42016.00
2023-04-21T07:12:57.521Z,42688.00
2023-04-21T07:13:57.375Z,43296.00
2023-04-21T07:14:57.357Z,44032.00
2023-04-21T07:15:57.347Z,44736.00
2023-04-21T07:16:57.487Z,45952.00
2023-04-21T07:17:57.591Z,47136.00
2023-04-21T07:18:57.314Z,48032.00
2023-04-21T07:19:58.037Z,48512.00
2023-04-21T07:20:57.315Z,49056.00
2023-04-21T07:21:57.297Z,49600.00
2023-04-21T07:22:57.269Z,50016.00
2023-04-21T07:23:57.263Z,50624.00
2023-04-21T07:24:57.262Z,51200.00
2023-04-21T07:25:57.296Z,51840.00
2023-04-21T07:26:57.223Z,52448.00
2023-04-21T07:27:57.223Z,53024.00
2023-04-21T07:28:57.205Z,53312.00
2023-04-21T07:29:57.252Z,53856.00
2023-04-21T07:30:57.230Z,54336.00
2023-04-21T07:31:57.550Z,54816.00
2023-04-21T07:32:57.205Z,55232.00
2023-04-21T07:33:57.167Z,55648.00
2023-04-21T07:34:57.139Z,56288.00
2023-04-21T07:35:57.139Z,56640.00
2023-04-21T07:36:57.116Z,56896.00
2023-04-21T07:37:57.110Z,57312.00
2023-04-21T07:38:57.114Z,57536.00
2023-04-21T07:39:57.107Z,58176.00
2023-04-21T07:40:57.072Z,58656.00
2023-04-21T07:41:57.077Z,59200.00
2023-04-21T07:42:57.065Z,59648.00
2023-04-21T07:43:57.046Z,60288.00
2023-04-21T07:44:57.024Z,60896.00
2023-04-21T07:45:57.038Z,61696.00
2023-04-21T07:46:57.037Z,62208.00
2023-04-21T07:47:57.231Z,62752.00
2023-04-21T07:48:56.986Z,63232.00
2023-04-21T07:49:56.977Z,63808.00
2023-04-21T07:50:57.011Z,64448.00
2023-04-21T07:51:56.958Z,64448.00
2023-04-21T07:52:56.937Z,64832.00
2023-04-21T07:53:56.928Z,65312.00
2023-04-21T07:54:56.919Z,65664.00
2023-04-21T07:55:56.914Z,66144.00
2023-04-21T07:56:56.915Z,66752.00
2023-04-21T07:57:56.905Z,67200.00
2023-04-21T07:58:56.874Z,67744.00
2023-04-21T07:59:56.875Z,67968.00
2023-04-21T08:00:56.859Z,68320.00
2023-04-21T08:01:56.861Z,68288.00
2023-04-21T08:02:56.874Z,68352.00
2023-04-21T08:03:56.906Z,68768.00
2023-04-21T08:04:56.879Z,69024.00
2023-04-21T08:05:57.048Z,69408.00
2023-04-21T08:06:56.854Z,69728.00
2023-04-21T08:07:56.806Z,70240.00
2023-04-21T08:08:56.767Z,70432.00
2023-04-21T08:09:56.836Z,70496.00
2023-04-21T08:10:56.746Z,70560.00
2023-04-21T08:11:56.765Z,71072.00
2023-04-21T08:12:56.726Z,71328.00
2023-04-21T08:13:56.735Z,71136.00
2023-04-21T08:14:56.986Z,71424.00
2023-04-21T08:15:56.700Z,71840.00
2023-04-21T08:16:57.395Z,72192.00
2023-04-21T08:17:56.708Z,72992.00
2023-04-21T08:18:56.669Z,73376.00
2023-04-21T08:19:58.554Z,73728.00
2023-04-21T08:20:56.652Z,73952.00
2023-04-21T08:21:56.630Z,74560.00
2023-04-21T08:22:56.649Z,75296.00
2023-04-21T08:23:56.776Z,75328.00
2023-04-21T08:24:56.606Z,75104.00
2023-04-21T08:25:56.618Z,75040.00
2023-04-21T08:26:56.575Z,75968.00
2023-04-21T08:27:56.628Z,75616.00
2023-04-21T08:28:56.607Z,76224.00
2023-04-21T08:29:56.574Z,76736.00
2023-04-21T08:30:56.532Z,77120.00
2023-04-21T08:31:56.562Z,77152.00
2023-04-21T08:32:56.555Z,77408.00
2023-04-21T08:34:01.783Z,77632.00
2023-04-21T08:34:57.488Z,78080.00
2023-04-21T08:36:05.371Z,78208.00
2023-04-21T08:36:57.489Z,78304.00
2023-04-21T08:37:56.475Z,79104.00
2023-04-21T08:38:56.449Z,79168.00
2023-04-21T08:39:56.442Z,78976.00
2023-04-21T08:40:56.438Z,79328.00
2023-04-21T08:41:56.415Z,79392.00
2023-04-21T08:42:58.794Z,79808.00
2023-04-21T08:43:56.398Z,79808.00
2023-04-21T08:44:56.389Z,80416.00
2023-04-21T08:45:56.466Z,80608.00
2023-04-21T08:46:56.394Z,80544.00
2023-04-21T08:47:56.426Z,81056.00
2023-04-21T08:48:56.350Z,81120.00
2023-04-21T08:49:56.336Z,81696.00
2023-04-21T08:50:56.323Z,82208.00
2023-04-21T08:51:56.322Z,82528.00
2023-04-21T08:52:56.329Z,82496.00
2023-04-21T08:53:56.302Z,83200.00
2023-04-21T08:54:56.280Z,83776.00
2023-04-21T08:56:09.969Z,83328.00
2023-04-21T08:57:07.867Z,84256.00
2023-04-21T08:57:57.275Z,83552.00
2023-04-21T08:58:56.262Z,83872.00
2023-04-21T08:59:56.234Z,83808.00
2023-04-21T09:00:56.281Z,84192.00
2023-04-21T09:01:56.236Z,84416.00
2023-04-21T09:03:00.949Z,84896.00
2023-04-21T09:03:57.375Z,85280.00
2023-04-21T09:04:56.568Z,85184.00
2023-04-21T09:05:56.408Z,85984.00
2023-04-21T09:06:56.179Z,86432.00
2023-04-21T09:07:56.181Z,86432.00
2023-04-21T09:08:56.279Z,86656.00
2023-04-21T09:09:56.153Z,87808.00
2023-04-21T09:10:56.174Z,87968.00
2023-04-21T09:11:56.112Z,88128.00
2023-04-21T09:12:56.121Z,87872.00
2023-04-21T09:13:56.092Z,88096.00
2023-04-21T09:14:56.084Z,88096.00
2023-04-21T09:15:56.075Z,87840.00
2023-04-21T09:16:56.099Z,88064.00
2023-04-21T09:17:56.144Z,88416.00
2023-04-21T09:18:56.041Z,88384.00
2023-04-21T09:19:56.033Z,88000.00
2023-04-21T09:20:56.116Z,88480.00
2023-04-21T09:21:56.013Z,88704.00
2023-04-21T09:22:56.067Z,88448.00
2023-04-21T09:23:56.007Z,89152.00
2023-04-21T09:24:55.985Z,88864.00
2023-04-21T09:25:56.001Z,89216.00
2023-04-21T09:26:55.969Z,89440.00
2023-04-21T09:27:55.956Z,90112.00
2023-04-21T09:28:55.952Z,90400.00
2023-04-21T09:29:56.028Z,90208.00
2023-04-21T09:30:55.958Z,89568.00
2023-04-21T09:31:55.917Z,90720.00
2023-04-21T09:32:55.934Z,89664.00
2023-04-21T09:33:59.258Z,90816.00
2023-04-21T09:34:55.885Z,90496.00
2023-04-21T09:37:33.840Z,92000.00
2023-04-21T09:38:25.979Z,91840.00
2023-04-21T09:39:42.640Z,92352.00
2023-04-21T09:40:25.933Z,92512.00
2023-04-21T09:41:24.928Z,92576.00
2023-04-21T09:42:25.121Z,92224.00
2023-04-21T09:43:24.914Z,91968.00
2023-04-21T09:44:25.058Z,92256.00
2023-04-21T09:45:39.135Z,91424.00
2023-04-21T09:46:26.919Z,91776.00
2023-04-21T09:47:24.902Z,91904.00
2023-04-21T09:48:24.854Z,92416.00
2023-04-21T09:49:24.860Z,93408.00
2023-04-21T09:50:48.184Z,92928.00
2023-04-21T09:51:37.390Z,92960.00
2023-04-21T09:52:25.835Z,93056.00
2023-04-21T09:53:24.800Z,92928.00
2023-04-21T09:55:24.781Z,92896.00
2023-04-21T09:56:24.774Z,93216.00
2023-04-21T09:57:24.775Z,93728.00
2023-04-21T09:58:24.759Z,93568.00
2023-04-21T09:59:24.749Z,93440.00
2023-04-21T10:00:24.801Z,93728.00
2023-04-21T10:01:24.883Z,93216.00
2023-04-21T10:02:24.945Z,93024.00
2023-04-21T10:03:24.810Z,92864.00
2023-04-21T10:04:25.141Z,93888.00
2023-04-21T10:05:24.741Z,93344.00
2023-04-21T10:06:24.684Z,92864.00
2023-04-21T10:07:24.663Z,94496.00
2023-04-21T10:08:24.660Z,94336.00
2023-04-21T10:09:24.649Z,94464.00
2023-04-21T10:10:24.643Z,94496.00
2023-04-21T10:11:24.626Z,94688.00
2023-04-21T10:12:24.615Z,94752.00
2023-04-21T10:13:24.611Z,93920.00
2023-04-21T10:14:24.597Z,93984.00
2023-04-21T10:15:24.584Z,93952.00
2023-04-21T10:16:24.608Z,94048.00
2023-04-21T10:17:24.628Z,94176.00
2023-04-21T10:18:24.553Z,94208.00
2023-04-21T10:19:24.550Z,94144.00
2023-04-21T10:20:24.540Z,94208.00
2023-04-21T10:21:24.620Z,93792.00
2023-04-21T10:22:24.530Z,93376.00
2023-04-21T10:23:24.543Z,93504.00
2023-04-21T10:24:24.507Z,93856.00
2023-04-21T10:25:24.483Z,93920.00
2023-04-21T10:26:24.485Z,93984.00
2023-04-21T10:27:24.464Z,94144.00
2023-04-21T10:28:24.461Z,94560.00
2023-04-21T10:29:24.446Z,94464.00
2023-04-21T10:30:24.702Z,94304.00
2023-04-21T10:31:24.454Z,95168.00
2023-04-21T10:32:24.458Z,95072.00
2023-04-21T10:33:24.408Z,94880.00
2023-04-21T10:34:24.404Z,94848.00
2023-04-21T10:35:24.410Z,94144.00
2023-04-21T10:36:24.391Z,94176.00
2023-04-21T10:37:24.386Z,94496.00
2023-04-21T10:38:24.374Z,94656.00
2023-04-21T10:39:24.371Z,95136.00
2023-04-21T10:40:36.462Z,95200.00
2023-04-21T10:41:25.331Z,95296.00
2023-04-21T10:42:24.321Z,94848.00
2023-04-21T10:43:24.365Z,95456.00
2023-04-21T10:44:24.301Z,94688.00
2023-04-21T10:45:24.296Z,95168.00
2023-04-21T10:46:24.310Z,94240.00
2023-04-21T10:47:24.322Z,94752.00
2023-04-21T10:48:24.297Z,94432.00
2023-04-21T10:49:24.256Z,94592.00
2023-04-21T10:50:24.249Z,95712.00
2023-04-21T10:51:24.252Z,95296.00
2023-04-21T10:52:24.342Z,96320.00
2023-04-21T10:53:24.234Z,94144.00
2023-04-21T10:54:24.217Z,94464.00
2023-04-21T10:55:24.207Z,93504.00
2023-04-21T10:56:24.201Z,94304.00
2023-04-21T10:57:24.194Z,93440.00
2023-04-21T10:58:24.164Z,93280.00
2023-04-21T10:59:24.159Z,93696.00
2023-04-21T11:00:24.379Z,93664.00
2023-04-21T11:01:24.209Z,93664.00
2023-04-21T11:02:24.952Z,94592.00
2023-04-21T11:03:24.339Z,94560.00
2023-04-21T11:04:24.856Z,94528.00
2023-04-21T11:05:24.098Z,92768.00
2023-04-21T11:06:24.097Z,93472.00
2023-04-21T11:07:24.097Z,93376.00
2023-04-21T11:08:24.063Z,92160.00
2023-04-21T11:09:24.400Z,93344.00
2023-04-21T11:10:24.059Z,93376.00
2023-04-21T11:11:24.045Z,93792.00
2023-04-21T11:12:24.029Z,94880.00
2023-04-21T11:13:24.023Z,94496.00
2023-04-21T11:14:24.002Z,94944.00
2023-04-21T11:15:24.023Z,93280.00
2023-04-21T11:16:24.020Z,93728.00
2023-04-21T11:17:24.042Z,93568.00
2023-04-21T11:18:23.962Z,93440.00
2023-04-21T11:19:24.005Z,94208.00
2023-04-21T11:20:23.945Z,94496.00
2023-04-21T11:21:23.937Z,93536.00
2023-04-21T11:22:23.927Z,93152.00
2023-04-21T11:23:23.931Z,93152.00
2023-04-21T11:24:23.915Z,93760.00
2023-04-21T11:25:23.919Z,94208.00
2023-04-21T11:26:23.891Z,90464.00
2023-04-21T11:27:23.884Z,92416.00
2023-04-21T11:28:24.373Z,94304.00
2023-04-21T11:29:23.860Z,94496.00
2023-04-21T11:30:23.877Z,94816.00
2023-04-21T11:31:23.894Z,95008.00
2023-04-21T11:32:23.837Z,94752.00
2023-04-21T11:33:23.920Z,95392.00
2023-04-21T11:34:23.807Z,95424.00
2023-04-21T11:35:23.832Z,96000.00
2023-04-21T11:36:23.791Z,95456.00
2023-04-21T11:37:23.788Z,94784.00
2023-04-21T11:38:23.776Z,94240.00
2023-04-21T11:39:23.764Z,94880.00
2023-04-21T11:40:23.756Z,94752.00
2023-04-21T11:41:23.786Z,92288.00
2023-04-21T11:42:23.735Z,93600.00
2023-04-21T11:43:23.726Z,94592.00
2023-04-21T11:44:23.713Z,92896.00
2023-04-21T11:45:24.364Z,92960.00
2023-04-21T11:46:23.771Z,92736.00
2023-04-21T11:47:23.743Z,91936.00
2023-04-21T11:48:23.695Z,92608.00
2023-04-21T11:49:23.667Z,92064.00
2023-04-21T11:50:23.664Z,90560.00
2023-04-21T11:51:23.696Z,90688.00
2023-04-21T11:52:23.758Z,90400.00
2023-04-21T11:53:23.637Z,89920.00
2023-04-21T11:54:23.855Z,89376.00
2023-04-21T11:55:23.607Z,88320.00
2023-04-21T11:56:23.597Z,88000.00
2023-04-21T11:57:23.627Z,87840.00
2023-04-21T11:58:23.581Z,85344.00
2023-04-21T11:59:25.565Z,86816.00
2023-04-21T12:00:23.572Z,86208.00
2023-04-21T12:01:23.665Z,87776.00
2023-04-21T12:02:23.669Z,88352.00
2023-04-21T12:03:23.672Z,81376.00
2023-04-21T12:04:23.591Z,87456.00
2023-04-21T12:05:23.543Z,85888.00
2023-04-21T12:06:23.622Z,87008.00
2023-04-21T12:07:23.494Z,87200.00
2023-04-21T12:08:23.499Z,87456.00
2023-04-21T12:09:23.481Z,88224.00
2023-04-21T12:10:23.481Z,86784.00
2023-04-21T12:11:23.489Z,85056.00
2023-04-21T12:12:23.457Z,87968.00
2023-04-21T12:13:23.493Z,87488.00
2023-04-21T12:14:23.443Z,87904.00
2023-04-21T12:15:23.476Z,89312.00
2023-04-21T12:16:23.453Z,85536.00
2023-04-21T12:17:23.419Z,45728.00
2023-04-21T12:18:23.399Z,20576.00
2023-04-21T12:19:23.402Z,83744.00